This is the latest recevied weather packets stored in our database for station/object VU3OPZ-13. If no packets are shown the sender has not sent any weather packets the latest 10 day(s).
| Time | Temp. | Humidity | Pressure | Rain* | Wind** | Luminosity | Snow |
|---|---|---|---|---|---|---|---|
| 1787655279 | 27.78° C | 63% | 1008 hPa | 0 mm | - | - | - |
| 1787653475 | 28.33° C | 60% | 1008 hPa | 0 mm | - | - | - |
| 1787651670 | 28.33° C | 60% | 1008 hPa | 0 mm | - | - | - |
| 1787649866 | 28.33° C | 58% | 1008 hPa | 0 mm | - | - | - |
| 1787648062 | 28.33° C | 57% | 1008 hPa | 0 mm | - | - | - |
| 1787646257 | 28.89° C | 56% | 1008 hPa | 0 mm | - | - | - |
| 1787644452 | 28.89° C | 55% | 1008 hPa | 0 mm | - | - | - |
| 1787642648 | 28.89° C | 56% | 1010 hPa | 0 mm | - | - | - |
| 1787640843 | 28.89° C | 55% | 1009 hPa | 0 mm | - | - | - |
| 1787639039 | 28.33° C | 58% | 1010 hPa | 0 mm | - | - | - |
| 1787637233 | 28.33° C | 58% | 1010 hPa | 0 mm | - | - | - |
| 1787632013 | 26.11° C | 68% | 1011 hPa | 0 mm | - | - | - |
| 1787630207 | 26.11° C | 67% | 1011 hPa | 0 mm | - | - | - |
| 1787628403 | 24.44° C | 74% | 1011 hPa | 0 mm | - | - | - |
| 1787626598 | 24.44° C | 73% | 1011 hPa | 0 mm | - | - | - |
| 1787624794 | 22.78° C | 83% | 1011 hPa | 0 mm | - | - | - |
| 1787622989 | 22.78° C | 83% | 1010 hPa | 0 mm | - | - | - |
| 1787621185 | 21.67° C | 90% | 1010 hPa | 0 mm | - | - | - |
| 1787619381 | 21.67° C | 90% | 1010 hPa | 0 mm | - | - | - |
| 1787617577 | 21.67° C | 90% | 1010 hPa | 0 mm | - | - | - |
| 1787613122 | 21.67° C | 89% | 1009 hPa | 0 mm | - | - | - |
| 1787611317 | 21.67° C | 90% | 1009 hPa | 0 mm | - | - | - |
| 1787609511 | 22.22° C | 89% | 1009 hPa | 0 mm | - | - | - |
| 1787607707 | 22.22° C | 89% | 1009 hPa | 0 mm | - | - | - |
| 1787605902 | 22.22° C | 87% | 1009 hPa | 0 mm | - | - | - |
* Rain latest hour (hover to see other rain measurements)
** Current wind speed in m/s (hover to see current wind gust speed)